Latest Weather Observations for Holsworthy

IDN60801

Issued at 2:35 am EST Thursday 28 August 2014 (issued every 30 minutes, with the page automatically refreshed every 10 minutes)

About weather observations | Map of weather stations | Latest weather observations for NSW | Other Formats
Station Details ID: 066161 Name: HOLSWORTHY AERODROME AWS Lat: -33.99 Lon: 150.95 Height: 68.16 m
Data from the previous 72 hours. | See also: Recent months for locations in New South Wales
Date/Time
EST
Temp
°C
App
Temp
°C
Dew
Point
Rel
Hum
%
Delta-T
°C
Wind Press
QNH
hPa
Press
MSL
hPa
Rain
since 9 am
mm
Dir
 
Spd
km/h
Gust
km/h
Spd
kts
Gust
kts
28/02:30am 10.5 8.1 9.9 96 0.3 SW 13 19 7 10 1025.2 - 0.4
28/02:00am 10.3 7.4 9.7 96 0.3 SW 15 19 8 10 1025.4 1025.5 0.2
28/01:30am 9.9 7.6 9.0 94 0.4 WSW 11 17 6 9 1025.5 - 0.2
28/01:00am 9.8 6.6 8.6 92 0.6 WSW 15 20 8 11 1025.8 1025.9 0.2
28/12:30am 9.9 6.6 8.2 89 0.8 SW 15 19 8 10 1026.0 - 0.2
28/12:00am 10.0 6.8 8.6 91 0.7 SW 15 20 8 11 1025.9 1026.0 0.2
 
Date/Time
EST
Temp
°C
App
Temp
°C
Dew
Point
Rel
Hum
%
Delta-T
°C
Wind Press
QNH
hPa
Press
MSL
hPa
Rain
since 9 am
mm
Dir
 
Spd
km/h
Gust
km/h
Spd
kts
Gust
kts
27/11:30pm 10.0 7.2 8.6 91 0.7 SW 13 19 7 10 1026.1 - 0.2
27/11:00pm 10.3 6.4 8.6 89 0.8 SW 19 24 10 13 1026.3 1026.4 0.2
27/10:30pm 10.3 7.1 8.4 88 0.9 SW 15 20 8 11 1026.3 - 0.2
27/10:00pm 10.6 7.4 8.5 87 1.0 SW 15 20 8 11 1026.5 1026.6 0.2
27/09:30pm 10.7 8.4 9.0 89 0.8 WSW 11 13 6 7 1026.5 - 0.2
27/09:00pm 10.6 8.7 9.0 90 0.8 WSW 9 13 5 7 1026.5 1026.6 0.2
27/08:30pm 10.9 8.7 9.2 89 0.9 WSW 11 13 6 7 1026.5 - 0.2
27/08:00pm 11.6 9.4 9.3 86 1.2 SW 11 17 6 9 1026.6 1026.7 0.2
27/07:30pm 12.6 10.0 9.4 81 1.6 SSW 13 17 7 9 1026.5 - 0.2
27/07:00pm 13.3 10.1 9.9 80 1.7 S 17 24 9 13 1026.2 1026.3 0.2
27/06:30pm 13.1 10.4 10.3 83 1.5 SSW 15 20 8 11 1026.0 - 0.2
27/06:00pm 13.3 11.4 10.5 83 1.5 S 11 17 6 9 1025.7 1025.8 0.2
27/05:30pm 13.6 10.3 10.8 83 1.5 S 19 32 10 17 1025.5 - 0.2
27/05:00pm 14.6 10.6 10.6 77 2.1 S 22 32 12 17 1025.2 1025.3 0.0
27/04:30pm 15.2 11.9 10.8 75 2.3 S 19 30 10 16 1024.9 - 0.0
27/04:00pm 15.6 11.1 9.9 69 3.0 SSE 24 35 13 19 1024.7 1024.8 0.0
27/03:30pm 16.0 10.3 9.9 67 3.2 SSE 30 50 16 27 1024.5 - 0.0
27/03:23pm 16.4 11.3 10.5 68 3.1 SSE 28 46 15 25 1024.4 - 0.0
27/03:00pm 16.3 11.6 10.8 70 2.9 SSE 26 41 14 22 1024.3 1024.4 0.0
27/02:30pm 14.6 11.3 11.6 82 1.6 SSE 20 28 11 15 1024.4 - 0.0
27/02:06pm 16.9 11.0 10.5 66 3.4 SSE 32 50 17 27 1024.3 - 0.0
27/02:00pm 16.6 10.6 10.0 65 3.5 SSE 32 46 17 25 1024.2 1024.3 0.0
27/01:40pm 16.8 11.7 10.6 67 3.3 SSE 28 46 15 25 1024.2 - 0.0
27/01:30pm 16.6 10.5 9.8 64 3.6 SSE 32 43 17 23 1024.3 - 0.0
27/01:00pm 17.0 11.7 9.9 63 3.7 S 28 39 15 21 1024.4 1024.5 0.0
27/12:30pm 16.7 12.9 9.9 64 3.6 SSE 20 28 11 15 1024.7 - 0.0
27/12:00pm 16.7 11.8 10.1 65 3.5 S 26 39 14 21 1025.2 1025.3 0.0
27/11:30am 16.8 11.2 10.2 65 3.5 SSE 30 44 16 24 1025.4 - 0.0
27/11:00am 16.3 10.6 9.9 66 3.3 SSE 30 48 16 26 1025.7 1025.8 0.0
27/10:58am 16.3 10.9 9.5 64 3.5 SSE 28 48 15 26 1025.7 - 0.0
27/10:30am 16.6 11.6 10.9 69 3.1 SSE 28 43 15 23 1025.9 - 0.0
27/10:00am 16.5 11.0 10.4 67 3.2 SE 30 44 16 24 1025.9 1026.0 0.0
27/09:47am 16.6 11.7 11.3 71 2.9 SSE 28 52 15 28 1025.9 - 0.0
27/09:30am 16.1 10.5 10.2 68 3.1 SSE 30 44 16 24 1025.8 - 0.0
27/09:00am 15.4 11.5 10.8 74 2.4 SSE 22 32 12 17 1025.8 1025.9 35.2
27/08:30am 14.5 12.8 12.5 88 1.1 S 13 20 7 11 1025.7 - 35.2
27/08:00am 12.5 11.2 11.4 93 0.6 SSE 9 13 5 7 1025.5 1025.6 35.2
27/07:30am 12.6 10.3 11.7 94 0.5 SSE 15 19 8 10 1025.6 - 34.6
27/07:00am 12.8 10.4 11.4 91 0.7 SSE 15 24 8 13 1025.1 1025.2 32.8
27/06:30am 12.0 11.1 11.4 96 0.3 WSW 7 13 4 7 1024.7 - 32.4
27/06:00am 12.2 11.3 11.4 95 0.4 SSW 7 13 4 7 1024.6 1024.7 32.4
27/05:46am 12.3 11.0 11.4 94 0.5 SE 9 20 5 11 1024.7 - 32.2
27/05:30am 12.9 9.3 11.8 93 0.6 S 22 30 12 16 1024.4 - 30.8
27/05:27am 12.8 10.5 11.7 93 0.6 SE 15 20 8 11 1024.5 - 30.2
27/05:00am 12.8 10.0 11.5 92 0.7 S 17 26 9 14 1024.4 1024.5 28.2
27/04:30am 12.7 11.2 11.8 94 0.5 SSW 11 17 6 9 1024.4 - 28.2
27/04:00am 13.0 9.9 11.6 91 0.7 SSE 19 32 10 17 1024.4 1024.5 26.8
27/03:30am 13.5 10.8 11.6 88 1.0 SSE 17 24 9 13 1024.2 - 26.6
27/03:00am 13.9 11.3 11.9 88 1.1 SSE 17 24 9 13 1024.0 1024.1 26.6
27/02:30am 13.4 11.6 12.0 91 0.8 S 13 19 7 10 1024.1 - 26.4
27/02:00am 13.0 11.7 11.4 90 0.8 S 9 13 5 7 1024.1 1024.2 26.4
27/01:30am 13.3 10.0 11.5 89 1.0 SE 20 26 11 14 1024.4 - 26.4
27/01:00am 12.2 10.3 11.7 97 0.3 SW 13 15 7 8 1024.6 1024.7 26.4
27/12:30am 12.4 10.5 11.9 97 0.3 SW 13 17 7 9 1025.0 - 26.4
27/12:00am 12.7 12.2 12.1 96 0.3 SSE 6 7 3 4 1025.1 1025.2 26.4
 
Date/Time
EST
Temp
°C
App
Temp
°C
Dew
Point
Rel
Hum
%
Delta-T
°C
Wind Press
QNH
hPa
Press
MSL
hPa
Rain
since 9 am
mm
Dir
 
Spd
km/h
Gust
km/h
Spd
kts
Gust
kts
26/11:30pm 12.8 12.2 12.2 96 0.3 E 7 9 4 5 1025.0 - 26.4
26/11:00pm 13.0 10.0 12.1 94 0.5 ESE 19 26 10 14 1025.5 1025.6 23.2
26/10:30pm 13.0 10.5 12.2 95 0.4 SE 17 22 9 12 1025.2 - 21.2
26/10:07pm 12.8 8.8 11.7 93 0.6 SE 24 30 13 16 1025.3 - 19.6
26/10:00pm 12.8 9.2 11.9 94 0.5 SE 22 30 12 16 1025.5 1025.6 19.0
26/09:48pm 12.7 9.0 11.4 92 0.7 SE 22 30 12 16 1025.4 - 17.8
26/09:30pm 13.4 9.5 12.0 91 0.8 ESE 24 39 13 21 1025.0 - 15.4
26/09:19pm 13.5 10.1 12.4 93 0.6 ESE 22 33 12 18 1024.9 - 15.0
26/09:01pm 13.9 10.2 12.8 93 0.6 SE 24 56 13 30 1024.9 - 14.2
26/09:00pm 13.9 10.2 12.6 92 0.7 SE 24 56 13 30 1024.9 1025.0 14.0
26/08:39pm 13.8 10.8 12.5 92 0.7 SSE 20 28 11 15 1024.7 - 12.6
26/08:30pm 13.8 10.1 12.7 93 0.6 SE 24 35 13 19 1024.6 - 12.6
26/08:21pm 13.9 10.3 13.0 94 0.5 SE 24 35 13 19 1024.7 - 11.4
26/08:00pm 13.9 11.2 13.0 94 0.5 SSE 19 22 10 12 1024.3 1024.4 9.4
26/07:30pm 13.5 11.9 12.7 95 0.4 SSW 13 17 7 9 1024.2 - 9.2
26/07:00pm 13.6 12.4 12.7 94 0.5 SSE 11 15 6 8 1024.1 1024.2 9.2
26/06:30pm 13.5 11.9 12.7 95 0.4 S 13 17 7 9 1024.0 - 9.2
26/06:00pm 13.1 12.2 12.5 96 0.3 S 9 15 5 8 1023.7 1023.7 9.0
26/05:30pm 12.9 11.1 12.1 95 0.4 SSE 13 15 7 8 1023.8 - 8.6
26/05:00pm 13.2 10.9 11.8 91 0.7 SSE 15 20 8 11 1023.4 1023.4 6.2
26/04:30pm 13.8 10.2 11.8 88 1.1 SSE 22 39 12 21 1023.3 - 5.8
26/04:00pm 14.3 12.7 12.9 91 0.8 SSE 13 17 7 9 1023.2 1023.2 5.8
26/03:30pm 14.0 11.5 12.4 90 0.9 S 17 22 9 12 1022.9 - 5.8
26/03:00pm 14.8 13.3 13.2 90 0.9 SSE 13 17 7 9 1023.0 1023.0 5.8
26/02:30pm 14.6 13.1 13.1 91 0.8 S 13 20 7 11 1023.1 - 5.8
26/02:00pm 14.7 13.3 13.4 92 0.7 SSE 13 19 7 10 1023.1 1023.1 5.8
26/01:30pm 13.8 13.1 13.2 96 0.3 SW 9 11 5 6 1023.2 - 5.6
26/01:00pm 13.4 12.5 12.6 95 0.4 S 9 13 5 7 1023.7 1023.7 5.0
26/12:30pm 13.2 10.0 11.9 92 0.7 SSE 20 28 11 15 1023.9 - 3.4
26/12:00pm 14.6 13.9 13.1 91 0.8 SSW 9 15 5 8 1023.8 1023.8 2.0
26/11:30am 14.3 13.5 13.0 92 0.7 S 9 13 5 7 1024.0 - 2.0
26/11:00am 13.6 12.7 12.7 94 0.5 SSE 9 13 5 7 1024.2 1024.3 2.0
26/10:30am 13.2 11.8 12.3 94 0.5 SE 11 15 6 8 1024.4 - 2.0
26/10:00am 13.1 11.4 12.5 96 0.3 ESE 13 19 7 10 1024.6 1024.7 1.6
26/09:30am 13.1 10.3 12.5 96 0.3 ESE 19 26 10 14 1024.6 - 0.6
26/09:00am 13.6 10.9 13.0 96 0.3 E 19 28 10 15 1024.1 1024.2 3.8
26/08:30am 13.3 11.3 12.8 97 0.3 ESE 15 24 8 13 1023.6 - 2.8
26/08:00am 13.1 11.0 12.5 96 0.3 ESE 15 22 8 12 1023.2 1023.2 1.0
26/07:30am 12.3 11.2 12.0 98 0.2 SSE 9 11 5 6 1022.8 - 1.0
26/07:00am 11.9 10.3 11.6 98 0.2 SSE 11 13 6 7 1022.5 1022.5 0.8
26/06:30am 11.2 10.2 10.9 98 0.2 S 7 9 4 5 1022.2 - 0.8
26/06:00am 10.4 9.1 10.1 98 0.2 SSW 7 9 4 5 1021.9 1021.9 0.8
26/05:30am 10.4 9.1 9.9 97 0.3 WSW 7 9 4 5 1021.6 - 0.8
26/05:00am 11.0 9.5 10.5 97 0.3 SW 9 13 5 7 1021.5 1021.5 0.8
26/04:30am 11.4 9.2 10.9 97 0.3 WSW 13 19 7 10 1021.3 - 0.8
26/04:00am 11.6 9.9 11.3 98 0.2 SW 11 15 6 8 1021.6 1021.6 0.6
26/03:30am 11.3 9.9 11.0 98 0.2 SW 9 13 5 7 1021.9 - 0.4
26/03:00am 11.1 9.3 10.8 98 0.2 SW 11 13 6 7 1021.7 1021.7 0.2
26/02:30am 11.4 9.7 11.1 98 0.2 SSW 11 15 6 8 1021.7 - 0.2
26/02:00am 11.1 9.7 10.8 98 0.2 SW 9 13 5 7 1022.0 1022.0 0.2
26/01:30am 11.1 9.6 10.6 97 0.3 SSW 9 11 5 6 1022.3 - 0.2
26/01:00am 11.0 9.1 10.5 97 0.3 WSW 11 13 6 7 1022.6 1022.6 0.2
26/12:30am 11.3 10.4 10.7 96 0.3 S 6 9 3 5 1022.9 - 0.2
26/12:00am 10.8 9.6 10.2 96 0.3 SW 7 9 4 5 1023.0 1023.0 0.2
 
Date/Time
EST
Temp
°C
App
Temp
°C
Dew
Point
Rel
Hum
%
Delta-T
°C
Wind Press
QNH
hPa
Press
MSL
hPa
Rain
since 9 am
mm
Dir
 
Spd
km/h
Gust
km/h
Spd
kts
Gust
kts
25/11:30pm 11.1 9.1 10.3 95 0.4 SW 11 15 6 8 1022.9 - 0.2
25/11:00pm 11.2 10.2 10.3 94 0.5 SW 6 9 3 5 1023.0 1023.0 0.2
25/10:30pm 11.6 11.1 10.7 94 0.5 N 4 7 2 4 1022.9 - 0.2
25/10:00pm 12.7 11.5 11.6 93 0.6 SSE 9 13 5 7 1023.4 1023.4 0.2
25/09:30pm 12.5 11.2 11.2 92 0.7 S 9 11 5 6 1023.6 - 0.2
25/09:00pm 12.9 12.1 11.0 88 1.0 SSW 6 7 3 4 1023.5 1023.5 0.2
25/08:30pm 13.5 11.8 11.2 86 1.2 ESE 11 15 6 8 1023.7 - 0.2
25/08:00pm 13.7 11.9 11.0 84 1.4 S 11 15 6 8 1023.5 1023.5 0.2
25/07:30pm 13.9 12.3 11.4 85 1.3 S 11 15 6 8 1023.6 - 0.2
25/07:00pm 13.6 12.0 11.5 87 1.1 S 11 13 6 7 1023.7 1023.7 0.2
25/06:30pm 13.4 11.7 11.1 86 1.2 SW 11 15 6 8 1023.4 - 0.2
25/06:00pm 14.0 12.9 10.8 81 1.7 S 7 9 4 5 1022.9 1022.9 0.2
25/05:30pm 15.3 14.0 11.3 77 2.1 ESE 9 11 5 6 1022.7 - 0.2
25/05:00pm 15.7 14.1 11.5 76 2.3 ESE 11 17 6 9 1022.6 1022.6 0.2
25/04:30pm 15.9 13.3 11.9 77 2.2 ESE 17 26 9 14 1022.2 - 0.2
25/04:00pm 16.9 13.6 11.6 71 2.9 SE 20 28 11 15 1021.9 1021.9 0.2
25/03:30pm 17.8 14.6 11.8 68 3.3 ESE 20 30 11 16 1022.4 - 0.2
25/03:00pm 18.0 13.7 10.6 62 4.0 ESE 24 32 13 17 1022.1 1022.1 0.2
25/02:30pm 19.6 16.2 11.4 59 4.5 ESE 20 24 11 13 1022.2 - 0.2
25/02:00pm 19.9 17.6 10.3 54 5.2 ENE 13 22 7 12 1022.1 1022.1 0.2
25/01:30pm 19.9 17.5 10.0 53 5.3 E 13 22 7 12 1022.3 - 0.2
25/01:00pm 19.5 17.6 9.1 51 5.5 N 9 11 5 6 1022.7 1022.7 0.2
25/12:30pm 20.0 17.4 9.3 50 5.7 E 13 20 7 11 1023.3 - 0.2
25/12:00pm 19.5 17.7 9.4 52 5.3 N 9 20 5 11 1023.8 1023.8 0.2
25/11:30am 18.4 16.7 9.7 57 4.6 ENE 9 24 5 13 1024.3 - 0.2
25/11:00am 17.9 16.2 9.8 59 4.3 NNE 9 19 5 10 1024.6 1024.7 0.2
25/10:30am 17.5 16.1 9.4 59 4.2 NW 7 13 4 7 1025.1 - 0.2
25/10:00am 16.8 15.6 11.5 71 2.9 WSW 9 11 5 6 1025.5 1025.6 0.2
25/09:30am 15.2 14.4 11.2 77 2.1 WNW 6 11 3 6 1025.6 - 0.0
25/09:00am 13.5 12.7 11.0 85 1.3 NW 6 9 3 5 1025.6 1025.7 0.0
25/08:30am 11.3 10.6 9.9 91 0.7 W 4 6 2 3 1025.7 - 0.0
25/08:00am 9.9 9.0 9.1 95 0.4 WSW 4 7 2 4 1025.6 1025.7 0.0
25/07:30am 8.6 6.9 8.2 97 0.2 WSW 7 9 4 5 1025.5 - 0.0
25/07:00am 7.5 5.7 7.2 98 0.1 WSW 6 7 3 4 1025.4 1025.5 0.0
25/06:30am 6.5 4.5 6.1 97 0.2 WSW 6 9 3 5 1025.2 - 0.0
25/06:00am 7.0 6.2 6.6 97 0.2 CALM 0 0 0 0 1024.8 1024.9 0.0
25/05:30am 6.7 5.8 6.1 96 0.3 CALM 0 0 0 0 1024.7 - 0.0
25/05:00am 7.0 6.2 6.3 95 0.3 CALM 0 0 0 0 1024.5 1024.6 0.0
25/04:30am 8.0 7.4 7.4 96 0.3 CALM 0 0 0 0 1024.5 - 0.0
25/04:00am 7.8 7.1 7.1 95 0.3 CALM 0 0 0 0 1024.5 1024.6 0.0
25/03:30am 8.4 7.1 7.8 96 0.3 ESE 4 6 2 3 1024.6 - 0.0
25/03:00am 8.9 7.4 8.3 96 0.3 SW 6 7 3 4 1024.8 1024.9 0.0

Other Formats:

Comma delimited format used in spreadsheet applications
http://www.bom.gov.au/fwo/IDN60801/IDN60801.95761.axf

JavaScript Object Notation format (JSON) in row-major order
http://www.bom.gov.au/fwo/IDN60801/IDN60801.95761.json